createdAt,value
2018-06-21T00:02:12.938Z,30.80
2018-06-21T00:04:42.578Z,30.73
2018-06-21T00:07:10.849Z,29.23
2018-06-21T00:09:39.157Z,23.77
2018-06-21T00:12:07.804Z,17.30
2018-06-21T00:14:36.103Z,17.87
2018-06-21T00:17:04.711Z,16.47
2018-06-21T00:19:33.127Z,18.57
2018-06-21T00:22:01.469Z,14.43
2018-06-21T00:24:29.971Z,13.83
2018-06-21T00:26:58.347Z,14.77
2018-06-21T00:29:26.917Z,16.70
2018-06-21T00:31:55.203Z,14.23
2018-06-21T00:34:23.512Z,13.17
2018-06-21T00:36:52.066Z,24.73
2018-06-21T00:39:20.348Z,33.63
2018-06-21T00:41:48.862Z,48.47
2018-06-21T00:44:17.149Z,53.67
2018-06-21T00:46:45.462Z,63.97
2018-06-21T00:49:13.781Z,71.97
2018-06-21T00:51:42.068Z,77.17
2018-06-21T00:54:10.417Z,79.83
2018-06-21T00:56:38.905Z,78.60
2018-06-21T00:59:07.259Z,78.60
2018-06-21T01:01:35.571Z,78.67
2018-06-21T01:04:04.073Z,63.23
2018-06-21T01:06:32.359Z,48.07
2018-06-21T01:09:00.896Z,45.13
2018-06-21T01:11:29.425Z,34.07
2018-06-21T01:13:58.012Z,29.43
2018-06-21T01:16:26.319Z,23.50
2018-06-21T01:18:54.654Z,23.33
2018-06-21T01:21:22.962Z,20.40
2018-06-21T01:23:51.298Z,17.37
2018-06-21T01:26:19.772Z,13.20
2018-06-21T01:28:48.034Z,13.40
2018-06-21T01:31:16.563Z,14.00
2018-06-21T01:33:45.059Z,14.43
2018-06-21T01:36:13.385Z,10.97
2018-06-21T01:38:41.724Z,11.17
2018-06-21T01:41:10.057Z,10.80
2018-06-21T01:43:38.753Z,11.25
2018-06-21T01:46:07.025Z,11.23
2018-06-21T01:48:35.293Z,10.33
2018-06-21T01:51:03.346Z,12.47
2018-06-21T01:53:31.646Z,16.13
2018-06-21T01:55:59.956Z,14.53
2018-06-21T01:58:28.214Z,18.90
2018-06-21T02:00:56.500Z,18.47
2018-06-21T02:03:24.954Z,14.87
2018-06-21T02:05:53.236Z,16.17
2018-06-21T02:08:21.500Z,14.07
2018-06-21T02:10:49.835Z,12.87
2018-06-21T02:13:18.110Z,12.00
2018-06-21T02:15:46.488Z,14.13
2018-06-21T02:18:14.973Z,12.13
2018-06-21T02:20:43.249Z,10.90
2018-06-21T02:23:11.585Z,11.10
2018-06-21T02:25:39.895Z,11.63
2018-06-21T02:28:08.147Z,13.00
2018-06-21T02:30:36.549Z,15.37
2018-06-21T02:33:04.927Z,15.43
2018-06-21T02:35:33.375Z,20.03
2018-06-21T02:38:01.902Z,20.40
2018-06-21T02:40:30.158Z,19.47
2018-06-21T02:42:58.553Z,16.40
2018-06-21T02:45:26.924Z,17.30
2018-06-21T02:47:55.196Z,16.37
2018-06-21T02:50:23.493Z,17.80
2018-06-21T02:52:51.854Z,15.40
2018-06-21T02:55:20.090Z,16.10
2018-06-21T02:57:48.362Z,17.73
2018-06-21T03:00:16.642Z,15.53
2018-06-21T03:02:45.038Z,18.33
2018-06-21T03:05:13.287Z,17.23
2018-06-21T03:07:41.550Z,13.70
2018-06-21T03:10:09.847Z,17.97
2018-06-21T03:12:38.099Z,12.73
2018-06-21T03:15:06.877Z,12.30
2018-06-21T03:17:35.818Z,11.63
2018-06-21T03:20:04.517Z,14.13
2018-06-21T03:22:32.818Z,13.30
2018-06-21T03:25:01.162Z,9.73
2018-06-21T03:27:29.420Z,8.33
2018-06-21T03:29:57.972Z,10.77
2018-06-21T03:32:26.248Z,12.13
2018-06-21T03:34:54.571Z,7.80
2018-06-21T03:37:22.857Z,7.20
2018-06-21T03:39:51.146Z,11.37
2018-06-21T03:42:19.676Z,7.13
2018-06-21T03:44:48.069Z,7.33
2018-06-21T03:47:16.372Z,6.37
2018-06-21T03:49:45.325Z,6.75
2018-06-21T03:52:13.901Z,6.97
2018-06-21T03:54:42.492Z,9.97
2018-06-21T03:57:10.935Z,7.27
2018-06-21T03:59:39.231Z,6.63
2018-06-21T04:02:07.594Z,7.87
2018-06-21T04:04:35.840Z,7.60
2018-06-21T04:07:04.118Z,5.93
2018-06-21T04:12:14.015Z,6.37
2018-06-21T04:14:42.294Z,5.40
2018-06-21T04:17:10.634Z,7.00
2018-06-21T04:19:39.396Z,6.12
2018-06-21T04:22:07.785Z,7.33
2018-06-21T04:24:36.589Z,7.37
2018-06-21T04:27:05.050Z,5.63
2018-06-21T04:29:33.345Z,5.70
2018-06-21T04:32:01.615Z,8.27
2018-06-21T04:34:29.876Z,4.83
2018-06-21T04:36:58.201Z,4.77
2018-06-21T04:39:26.424Z,5.23
2018-06-21T04:41:54.768Z,4.67
2018-06-21T04:44:23.056Z,4.70
2018-06-21T04:46:51.532Z,6.17
2018-06-21T04:49:19.822Z,5.40
2018-06-21T04:51:48.482Z,5.83
2018-06-21T04:54:17.387Z,5.47
2018-06-21T04:56:45.858Z,6.40
2018-06-21T04:59:14.170Z,8.80
2018-06-21T05:01:42.604Z,5.90
2018-06-21T05:04:11.164Z,5.57
2018-06-21T05:06:39.612Z,6.30
2018-06-21T05:09:09.829Z,4.87
2018-06-21T05:11:38.185Z,4.50
2018-06-21T05:14:06.597Z,5.97
2018-06-21T05:16:35.180Z,4.73
2018-06-21T05:19:03.609Z,6.43
2018-06-21T05:21:32.223Z,6.57
2018-06-21T05:24:01.347Z,4.17
2018-06-21T05:26:29.609Z,4.93
2018-06-21T05:28:58.123Z,5.33
2018-06-21T05:31:26.453Z,5.23
2018-06-21T05:33:54.966Z,4.37
2018-06-21T05:36:23.297Z,3.83
2018-06-21T05:38:51.758Z,3.90
2018-06-21T05:41:20.067Z,4.00
2018-06-21T05:43:48.360Z,5.03
2018-06-21T05:46:16.680Z,5.57
2018-06-21T05:48:45.331Z,4.07
2018-06-21T05:51:13.694Z,6.77
2018-06-21T05:53:42.069Z,3.50
2018-06-21T05:56:10.358Z,4.53
2018-06-21T05:58:39.583Z,4.17
2018-06-21T06:01:07.884Z,6.03
2018-06-21T06:03:36.188Z,4.67
2018-06-21T06:06:04.456Z,7.77
2018-06-21T06:08:32.717Z,6.00
2018-06-21T06:11:02.175Z,6.07
2018-06-21T06:13:30.512Z,5.70
2018-06-21T06:15:58.813Z,5.40
2018-06-21T06:18:27.193Z,4.33
2018-06-21T06:20:55.560Z,4.13
2018-06-21T06:23:23.796Z,5.07
2018-06-21T06:25:52.063Z,4.40
2018-06-21T06:28:20.376Z,5.50
2018-06-21T06:30:48.407Z,4.27
2018-06-21T06:33:17.220Z,4.58
2018-06-21T06:35:45.534Z,3.73
2018-06-21T06:38:13.802Z,7.50
2018-06-21T06:40:42.099Z,6.90
2018-06-21T06:43:10.357Z,6.30
2018-06-21T06:45:39.394Z,7.12
2018-06-21T06:48:08.262Z,4.33
2018-06-21T06:50:36.589Z,9.00
2018-06-21T06:53:05.246Z,4.87
2018-06-21T06:55:33.551Z,4.00
2018-06-21T06:58:02.442Z,7.42
2018-06-21T07:00:31.338Z,4.62
2018-06-21T07:03:00.130Z,4.97
2018-06-21T07:05:28.696Z,5.20
2018-06-21T07:07:57.201Z,6.73
2018-06-21T07:10:29.140Z,5.67
2018-06-21T07:12:58.024Z,4.47
2018-06-21T07:15:26.678Z,6.37
2018-06-21T07:17:55.426Z,6.87
2018-06-21T07:20:24.592Z,4.53
2018-06-21T07:22:55.537Z,6.50
2018-06-21T07:35:09.138Z,5.93
2018-06-21T07:37:37.394Z,4.30
2018-06-21T07:40:06.388Z,3.75
2018-06-21T07:42:35.028Z,3.93
2018-06-21T07:45:03.598Z,5.07
2018-06-21T07:47:32.213Z,3.30
2018-06-21T07:50:00.780Z,5.90
2018-06-21T07:52:29.591Z,6.65
2018-06-21T07:54:59.583Z,4.70
2018-06-21T07:57:28.421Z,5.15
2018-06-21T07:59:57.002Z,3.80
2018-06-21T08:02:25.303Z,5.20
2018-06-21T08:04:53.695Z,5.60
2018-06-21T08:07:22.716Z,5.15
2018-06-21T08:09:51.351Z,6.23
2018-06-21T08:12:20.227Z,3.47
2018-06-21T08:14:49.092Z,5.53
2018-06-21T08:17:17.599Z,4.13
2018-06-21T08:19:46.029Z,5.70
2018-06-21T08:22:14.892Z,3.83
2018-06-21T08:24:43.670Z,6.13
2018-06-21T08:27:12.303Z,3.80
2018-06-21T08:29:41.203Z,6.03
2018-06-21T08:32:09.862Z,5.87
2018-06-21T08:34:39.500Z,3.52
2018-06-21T08:37:08.312Z,3.70
2018-06-21T08:39:36.864Z,3.60
2018-06-21T08:42:05.493Z,7.43
2018-06-21T08:44:34.487Z,3.58
2018-06-21T08:47:03.425Z,4.17
2018-06-21T08:49:32.370Z,4.22
2018-06-21T08:52:01.285Z,4.53
2018-06-21T08:54:30.354Z,4.03
2018-06-21T08:56:58.995Z,5.43
2018-06-21T08:59:27.827Z,4.50
2018-06-21T09:01:56.312Z,4.67
2018-06-21T09:04:25.195Z,3.22
2018-06-21T09:06:53.772Z,3.30
2018-06-21T09:09:22.601Z,6.83
2018-06-21T09:11:51.454Z,3.47
2018-06-21T09:14:20.309Z,3.60
2018-06-21T09:16:49.280Z,4.22
2018-06-21T09:19:18.495Z,3.35
2018-06-21T09:21:47.444Z,4.58
2018-06-21T09:24:16.344Z,3.90
2018-06-21T09:26:45.235Z,4.60
2018-06-21T09:29:13.856Z,3.40
2018-06-21T09:31:42.115Z,3.70
2018-06-21T09:34:14.430Z,5.47
2018-06-21T09:36:44.448Z,5.17
2018-06-21T09:39:18.618Z,3.30
2018-06-21T09:41:52.433Z,4.03
2018-06-21T09:44:26.723Z,4.20
2018-06-21T09:47:00.551Z,3.57
2018-06-21T09:49:30.197Z,5.15
2018-06-21T09:52:00.441Z,4.70
2018-06-21T09:54:29.460Z,4.80
2018-06-21T09:56:58.689Z,4.53
2018-06-21T09:59:27.871Z,8.07
2018-06-21T10:01:56.347Z,5.40
2018-06-21T10:04:25.323Z,4.50
2018-06-21T10:06:53.965Z,6.63
2018-06-21T10:09:22.882Z,6.90
2018-06-21T10:11:51.522Z,6.80
2018-06-21T10:14:20.548Z,6.13
2018-06-21T10:16:49.529Z,5.45
2018-06-21T10:19:18.570Z,5.17
2018-06-21T10:21:48.569Z,6.70
2018-06-21T10:24:17.446Z,3.67
2018-06-21T10:26:46.288Z,4.05
2018-06-21T10:29:14.915Z,6.40
2018-06-21T10:31:43.332Z,4.27
2018-06-21T10:34:12.311Z,3.98
2018-06-21T10:36:40.897Z,3.80
2018-06-21T10:39:11.091Z,4.53
2018-06-21T10:41:40.274Z,4.40
2018-06-21T10:44:08.942Z,3.27
2018-06-21T10:46:38.730Z,3.37
2018-06-21T10:49:07.668Z,3.45
2018-06-21T10:51:36.627Z,3.80
2018-06-21T10:54:05.550Z,3.40
2018-06-21T10:56:34.562Z,3.10
2018-06-21T10:59:03.448Z,5.28
2018-06-21T11:01:32.671Z,6.20
2018-06-21T11:04:01.665Z,3.62
2018-06-21T11:06:30.246Z,4.57
2018-06-21T11:08:58.859Z,2.93
2018-06-21T11:11:27.552Z,3.50
2018-06-21T11:13:56.528Z,4.47
2018-06-21T11:16:25.610Z,5.60
2018-06-21T11:18:54.678Z,3.98
2018-06-21T11:21:23.969Z,4.20
2018-06-21T11:23:52.657Z,4.10
2018-06-21T11:26:21.521Z,4.80
2018-06-21T11:28:50.016Z,8.03
2018-06-21T11:31:18.907Z,13.80
2018-06-21T11:33:47.685Z,7.77
2018-06-21T11:36:16.387Z,3.70
2018-06-21T11:38:45.399Z,4.08
2018-06-21T11:41:14.303Z,6.58
2018-06-21T11:43:42.775Z,3.90
2018-06-21T11:46:11.647Z,3.80
2018-06-21T11:48:40.553Z,5.42
2018-06-21T11:51:09.411Z,5.30
2018-06-21T11:53:38.295Z,3.75
2018-06-21T11:56:06.938Z,3.37
2018-06-21T11:58:35.865Z,5.12
2018-06-21T12:01:04.491Z,5.50
2018-06-21T12:03:33.077Z,7.97
2018-06-21T12:06:01.634Z,4.87
2018-06-21T12:08:34.671Z,4.23
2018-06-21T12:11:03.201Z,6.57
2018-06-21T12:13:32.021Z,7.47
2018-06-21T12:16:00.861Z,4.10
2018-06-21T12:18:29.597Z,4.27
2018-06-21T12:20:58.644Z,6.60
2018-06-21T12:23:30.860Z,6.63
2018-06-21T12:25:59.829Z,4.07
2018-06-21T12:28:29.003Z,9.00
2018-06-21T12:30:58.143Z,4.10
2018-06-21T12:33:26.756Z,6.23
2018-06-21T12:35:55.316Z,5.57
2018-06-21T12:38:24.208Z,4.63
2018-06-21T12:40:53.205Z,4.03
2018-06-21T12:43:24.754Z,7.28
2018-06-21T12:45:53.333Z,7.80
2018-06-21T12:51:01.533Z,4.87
2018-06-21T12:53:31.426Z,3.87
2018-06-21T12:56:00.336Z,5.58
2018-06-21T12:58:29.747Z,4.55
2018-06-21T13:00:58.665Z,3.95
2018-06-21T13:03:27.773Z,3.83
2018-06-21T13:05:56.727Z,5.83
2018-06-21T13:08:36.648Z,7.03
2018-06-21T13:11:18.681Z,6.27
2018-06-21T13:16:32.227Z,4.58
2018-06-21T13:19:01.187Z,5.95
2018-06-21T13:21:30.018Z,3.65
2018-06-21T13:24:18.367Z,4.95
2018-06-21T13:26:47.337Z,3.70
2018-06-21T13:29:16.249Z,8.38
2018-06-21T13:31:45.133Z,4.87
2018-06-21T13:34:14.063Z,7.65
2018-06-21T13:36:42.973Z,4.50
2018-06-21T13:39:11.848Z,7.12
2018-06-21T13:41:41.181Z,5.97
2018-06-21T13:44:10.050Z,4.90
2018-06-21T13:46:38.930Z,4.12
2018-06-21T13:49:08.383Z,6.75
2018-06-21T13:51:37.249Z,6.42
2018-06-21T13:54:09.075Z,5.10
2018-06-21T13:56:38.309Z,6.78
2018-06-21T13:59:07.221Z,5.85
2018-06-21T14:01:36.189Z,5.28
2018-06-21T14:04:04.583Z,3.47
2018-06-21T14:06:34.550Z,7.87
2018-06-21T14:09:03.075Z,3.77
2018-06-21T14:11:31.533Z,4.47
2018-06-21T14:14:00.095Z,7.07
2018-06-21T14:16:29.009Z,5.05
2018-06-21T14:18:58.089Z,3.80
2018-06-21T14:21:27.087Z,2.87
2018-06-21T14:23:56.471Z,3.27
2018-06-21T14:26:26.195Z,5.80
2018-06-21T14:28:55.751Z,5.47
2018-06-21T14:31:25.775Z,4.50
2018-06-21T14:33:54.762Z,5.33
2018-06-21T14:36:23.649Z,9.58
2018-06-21T14:38:52.717Z,5.05
2018-06-21T14:41:22.055Z,6.03
2018-06-21T14:43:51.149Z,3.85
2018-06-21T14:46:20.369Z,7.92
2018-06-21T14:48:49.552Z,6.42
2018-06-21T14:51:24.560Z,8.08
2018-06-21T14:53:57.310Z,7.95
2018-06-21T14:56:26.619Z,7.15
2018-06-21T14:58:56.677Z,3.02
2018-06-21T15:01:25.053Z,7.33
2018-06-21T15:03:54.541Z,4.50
2018-06-21T15:06:23.929Z,3.63
2018-06-21T15:08:52.897Z,7.10
2018-06-21T15:11:22.863Z,8.77
2018-06-21T15:13:52.514Z,4.12
2018-06-21T15:16:23.437Z,5.70
2018-06-21T15:18:52.900Z,6.47
2018-06-21T15:21:32.164Z,3.87
2018-06-21T15:24:00.875Z,4.60
2018-06-21T15:26:29.200Z,4.47
2018-06-21T15:28:58.613Z,5.90
2018-06-21T15:31:27.312Z,5.73
2018-06-21T15:33:56.689Z,9.58
2018-06-21T15:36:25.017Z,8.43
2018-06-21T15:38:57.907Z,3.33
2018-06-21T15:41:31.096Z,5.90
2018-06-21T15:43:59.856Z,7.90
2018-06-21T15:46:28.141Z,6.53
2018-06-21T15:48:57.109Z,5.75
2018-06-21T15:51:25.465Z,6.57
2018-06-21T15:53:54.415Z,4.83
2018-06-21T15:56:23.162Z,3.97
2018-06-21T15:58:54.877Z,7.03
2018-06-21T16:01:23.846Z,5.35
2018-06-21T16:03:52.209Z,10.23
2018-06-21T16:06:20.613Z,4.73
2018-06-21T16:08:54.412Z,11.80
2018-06-21T16:11:26.868Z,8.18
2018-06-21T16:13:56.348Z,7.35
2018-06-21T16:16:25.336Z,5.97
2018-06-21T16:18:54.465Z,6.07
2018-06-21T16:21:32.607Z,2.67
2018-06-21T16:24:01.626Z,7.12
2018-06-21T16:26:30.099Z,7.37
2018-06-21T16:29:00.175Z,8.48
2018-06-21T16:31:29.787Z,3.03
2018-06-21T16:33:58.613Z,6.80
2018-06-21T16:36:46.360Z,6.17
2018-06-21T16:42:07.319Z,9.20
2018-06-21T16:44:36.112Z,3.53
2018-06-21T16:47:24.194Z,7.03
2018-06-21T16:50:01.201Z,7.33
2018-06-21T16:52:29.731Z,7.83
2018-06-21T16:54:58.137Z,4.93
2018-06-21T16:57:26.799Z,4.27
2018-06-21T16:59:55.883Z,4.67
2018-06-21T17:02:24.941Z,4.62
2018-06-21T17:04:56.717Z,3.87
2018-06-21T17:07:25.085Z,3.17
2018-06-21T17:09:54.073Z,4.08
2018-06-21T17:12:22.911Z,5.77
2018-06-21T17:14:51.267Z,3.43
2018-06-21T17:17:19.721Z,4.63
2018-06-21T17:19:48.159Z,3.03
2018-06-21T17:22:16.954Z,5.47
2018-06-21T17:24:46.412Z,5.37
2018-06-21T17:27:14.908Z,4.23
2018-06-21T17:29:46.993Z,5.43
2018-06-21T17:32:18.411Z,4.27
2018-06-21T17:34:47.451Z,4.57
2018-06-21T17:37:16.266Z,3.40
2018-06-21T17:39:44.785Z,10.27
2018-06-21T17:42:13.338Z,4.97
2018-06-21T17:44:45.859Z,3.47
2018-06-21T17:47:14.392Z,6.00
2018-06-21T17:49:49.519Z,4.30
2018-06-21T17:52:19.432Z,4.97
2018-06-21T17:54:47.924Z,3.97
2018-06-21T17:57:16.490Z,11.80
2018-06-21T17:59:44.845Z,4.10
2018-06-21T18:02:13.236Z,11.43
2018-06-21T18:04:41.764Z,5.47
2018-06-21T18:07:10.280Z,3.57
2018-06-21T18:09:38.836Z,5.20
2018-06-21T18:12:07.234Z,5.80
2018-06-21T18:14:35.812Z,5.43
2018-06-21T18:17:04.402Z,3.23
2018-06-21T18:19:33.249Z,4.73
2018-06-21T18:22:02.040Z,6.70
2018-06-21T18:24:30.536Z,7.17
2018-06-21T18:26:59.258Z,7.03
2018-06-21T18:29:27.799Z,5.93
2018-06-21T18:31:56.678Z,6.80
2018-06-21T18:34:25.940Z,13.33
2018-06-21T18:36:54.359Z,10.33
2018-06-21T18:39:23.041Z,12.00
2018-06-21T18:41:51.487Z,12.00
2018-06-21T18:44:19.998Z,7.60
2018-06-21T18:46:48.534Z,15.03
2018-06-21T18:49:16.857Z,7.27
2018-06-21T18:51:45.199Z,11.63
2018-06-21T18:54:13.650Z,8.20
2018-06-21T18:56:42.842Z,3.77
2018-06-21T18:59:11.444Z,7.03
2018-06-21T19:01:39.778Z,4.83
2018-06-21T19:04:08.406Z,10.07
2018-06-21T19:06:42.208Z,3.47
2018-06-21T19:09:15.832Z,7.17
2018-06-21T19:11:49.388Z,5.77
2018-06-21T19:14:17.878Z,3.70
2018-06-21T19:16:46.389Z,4.17
2018-06-21T19:19:15.374Z,3.77
2018-06-21T19:21:43.696Z,5.30
2018-06-21T19:24:12.114Z,4.87
2018-06-21T19:26:40.500Z,6.43
2018-06-21T19:29:09.207Z,2.57
2018-06-21T19:31:37.806Z,2.47
2018-06-21T19:34:06.291Z,1.80
2018-06-21T19:36:34.733Z,2.13
2018-06-21T19:39:04.632Z,2.23
2018-06-21T19:41:33.075Z,3.03
2018-06-21T19:44:02.356Z,3.30
2018-06-21T19:46:30.845Z,4.93
2018-06-21T19:48:59.197Z,2.83
2018-06-21T19:51:28.209Z,4.33
2018-06-21T19:53:56.573Z,5.23
2018-06-21T19:56:26.528Z,3.43
2018-06-21T19:58:54.908Z,2.97
2018-06-21T20:01:23.302Z,7.33
2018-06-21T20:03:55.201Z,3.90
2018-06-21T20:06:23.755Z,7.40
2018-06-21T20:08:52.033Z,5.50
2018-06-21T20:11:25.873Z,4.70
2018-06-21T20:13:54.196Z,3.67
2018-06-21T20:16:23.225Z,3.50
2018-06-21T20:18:51.637Z,4.10
2018-06-21T20:21:20.876Z,4.20
2018-06-21T20:23:50.513Z,4.50
2018-06-21T20:26:19.581Z,5.63
2018-06-21T20:28:48.178Z,7.77
2018-06-21T20:31:17.601Z,5.00
2018-06-21T20:33:47.081Z,4.27
2018-06-21T20:36:16.010Z,5.93
2018-06-21T20:38:44.435Z,5.57
2018-06-21T20:41:13.289Z,6.33
2018-06-21T20:43:42.051Z,7.53
2018-06-21T20:46:12.781Z,5.17
2018-06-21T20:48:41.180Z,5.10
2018-06-21T20:51:09.537Z,5.00
2018-06-21T20:53:37.932Z,5.43
2018-06-21T20:56:07.129Z,6.13
2018-06-21T20:58:37.070Z,6.30
2018-06-21T21:01:07.562Z,7.67
2018-06-21T21:03:36.383Z,6.73
2018-06-21T21:06:06.284Z,6.03
2018-06-21T21:08:35.055Z,8.40
2018-06-21T21:11:09.620Z,5.40
2018-06-21T21:13:38.496Z,6.03
2018-06-21T21:16:07.236Z,5.47
2018-06-21T21:18:36.001Z,8.63
2018-06-21T21:21:04.398Z,5.33
2018-06-21T21:23:34.476Z,4.87
2018-06-21T21:26:03.241Z,9.80
2018-06-21T21:28:31.955Z,5.23
2018-06-21T21:31:03.466Z,7.37
2018-06-21T21:33:31.877Z,5.57
2018-06-21T21:36:02.202Z,4.87
2018-06-21T21:38:33.397Z,3.83
2018-06-21T21:41:03.909Z,3.37
2018-06-21T21:43:32.369Z,8.37
2018-06-21T21:46:00.781Z,6.57
2018-06-21T21:48:29.326Z,3.33
2018-06-21T21:50:57.892Z,4.77
2018-06-21T21:53:34.102Z,6.80
2018-06-21T21:56:03.035Z,6.07
2018-06-21T21:58:31.839Z,7.13
2018-06-21T22:01:00.778Z,3.43
2018-06-21T22:03:29.431Z,3.00
2018-06-21T22:05:57.738Z,3.73
2018-06-21T22:08:26.331Z,3.47
2018-06-21T22:10:54.982Z,3.23
2018-06-21T22:13:23.911Z,2.37
2018-06-21T22:15:55.959Z,4.67
2018-06-21T22:18:24.435Z,3.60
2018-06-21T22:20:52.883Z,4.43
2018-06-21T22:23:30.089Z,3.07
2018-06-21T22:26:01.564Z,3.47
2018-06-21T22:28:31.713Z,4.03
2018-06-21T22:31:00.658Z,5.63
2018-06-21T22:33:29.801Z,5.10
2018-06-21T22:36:38.099Z,4.40
2018-06-21T22:39:09.269Z,4.23
2018-06-21T22:41:38.836Z,2.77
2018-06-21T22:44:11.225Z,4.30
2018-06-21T22:46:44.676Z,6.10
2018-06-21T22:49:18.642Z,5.30
2018-06-21T22:51:52.577Z,2.57
2018-06-21T22:54:21.177Z,4.60
2018-06-21T22:56:49.611Z,3.93
2018-06-21T22:59:22.210Z,3.17
2018-06-21T23:01:50.586Z,4.37
2018-06-21T23:04:18.863Z,3.13
2018-06-21T23:06:47.143Z,5.60
2018-06-21T23:09:15.549Z,2.43
2018-06-21T23:11:43.901Z,3.63
2018-06-21T23:23:57.379Z,2.40
2018-06-21T23:26:25.693Z,6.63
2018-06-21T23:28:54.120Z,7.10
2018-06-21T23:31:27.292Z,3.53
2018-06-21T23:33:55.808Z,1.90
2018-06-21T23:36:24.146Z,2.57
2018-06-21T23:38:52.524Z,4.60
2018-06-21T23:41:20.924Z,4.20
2018-06-21T23:43:49.271Z,4.43
2018-06-21T23:46:17.613Z,2.17
2018-06-21T23:48:45.883Z,5.60
2018-06-21T23:51:14.314Z,3.53
2018-06-21T23:53:42.575Z,6.67
2018-06-21T23:56:10.830Z,3.00
2018-06-21T23:58:39.092Z,4.83
